sensor_id;sensor_type;location;lat;lon;timestamp;pressure;altitude;pressure_sealevel;temperature;humidity
60817;BME280;51921;51.518;-3.188;2024-03-08T00:02:13;100935.17;;;-0.07;100.00
60817;BME280;51921;51.518;-3.188;2024-03-08T00:04:39;100930.65;;;-0.18;100.00
60817;BME280;51921;51.518;-3.188;2024-03-08T00:07:04;100931.46;;;-0.18;100.00
60817;BME280;51921;51.518;-3.188;2024-03-08T00:09:29;100928.10;;;-0.13;100.00
60817;BME280;51921;51.518;-3.188;2024-03-08T00:11:55;100930.25;;;-0.09;100.00
60817;BME280;51921;51.518;-3.188;2024-03-08T00:14:20;100932.95;;;-0.44;100.00
60817;BME280;51921;51.518;-3.188;2024-03-08T00:16:45;100930.39;;;-0.37;100.00
60817;BME280;51921;51.518;-3.188;2024-03-08T00:19:11;100933.25;;;-0.17;100.00
60817;BME280;51921;51.518;-3.188;2024-03-08T00:21:36;100925.99;;;0.08;100.00
60817;BME280;51921;51.518;-3.188;2024-03-08T00:24:02;100920.00;;;-0.57;100.00
60817;BME280;51921;51.518;-3.188;2024-03-08T00:26:27;100921.30;;;-0.38;100.00
60817;BME280;51921;51.518;-3.188;2024-03-08T00:28:52;100922.68;;;-0.31;100.00
60817;BME280;51921;51.518;-3.188;2024-03-08T00:31:17;100924.55;;;-0.15;100.00
60817;BME280;51921;51.518;-3.188;2024-03-08T00:33:43;100923.73;;;-0.08;100.00
60817;BME280;51921;51.518;-3.188;2024-03-08T00:36:08;100916.46;;;0.09;100.00
60817;BME280;51921;51.518;-3.188;2024-03-08T00:38:33;100916.36;;;0.13;100.00
60817;BME280;51921;51.518;-3.188;2024-03-08T00:40:59;100916.69;;;0.19;100.00
60817;BME280;51921;51.518;-3.188;2024-03-08T00:43:25;100916.33;;;0.07;100.00
60817;BME280;51921;51.518;-3.188;2024-03-08T00:45:50;100919.84;;;0.47;100.00
60817;BME280;51921;51.518;-3.188;2024-03-08T00:48:15;100918.66;;;0.21;100.00
60817;BME280;51921;51.518;-3.188;2024-03-08T00:50:40;100908.61;;;0.08;100.00
60817;BME280;51921;51.518;-3.188;2024-03-08T00:53:06;100908.96;;;0.18;100.00
60817;BME280;51921;51.518;-3.188;2024-03-08T00:55:32;100914.26;;;0.44;100.00
60817;BME280;51921;51.518;-3.188;2024-03-08T00:57:56;100900.77;;;0.00;100.00
60817;BME280;51921;51.518;-3.188;2024-03-08T01:00:22;100897.97;;;0.12;100.00
60817;BME280;51921;51.518;-3.188;2024-03-08T01:02:47;100897.94;;;0.29;100.00
60817;BME280;51921;51.518;-3.188;2024-03-08T01:05:13;100890.09;;;0.15;100.00
60817;BME280;51921;51.518;-3.188;2024-03-08T01:07:38;100883.35;;;-0.10;100.00
60817;BME280;51921;51.518;-3.188;2024-03-08T01:10:05;100880.70;;;0.29;100.00
60817;BME280;51921;51.518;-3.188;2024-03-08T01:12:30;100882.02;;;-0.05;100.00
60817;BME280;51921;51.518;-3.188;2024-03-08T01:14:56;100871.55;;;0.33;100.00
60817;BME280;51921;51.518;-3.188;2024-03-08T01:17:21;100870.25;;;0.08;100.00
60817;BME280;51921;51.518;-3.188;2024-03-08T01:19:46;100862.73;;;0.60;100.00
60817;BME280;51921;51.518;-3.188;2024-03-08T01:22:12;100863.65;;;0.26;100.00
60817;BME280;51921;51.518;-3.188;2024-03-08T01:24:37;100859.00;;;-0.02;100.00
60817;BME280;51921;51.518;-3.188;2024-03-08T01:27:02;100856.74;;;-0.10;100.00
60817;BME280;51921;51.518;-3.188;2024-03-08T01:29:27;100852.85;;;0.34;100.00
60817;BME280;51921;51.518;-3.188;2024-03-08T01:31:53;100843.96;;;0.38;100.00
60817;BME280;51921;51.518;-3.188;2024-03-08T01:34:18;100840.96;;;0.25;100.00
60817;BME280;51921;51.518;-3.188;2024-03-08T01:36:44;100834.75;;;0.28;100.00
60817;BME280;51921;51.518;-3.188;2024-03-08T01:39:09;100829.36;;;-0.01;100.00
60817;BME280;51921;51.518;-3.188;2024-03-08T01:41:34;100828.65;;;0.42;100.00
60817;BME280;51921;51.518;-3.188;2024-03-08T01:44:00;100832.75;;;0.21;100.00
60817;BME280;51921;51.518;-3.188;2024-03-08T01:46:26;100819.97;;;0.15;100.00
60817;BME280;51921;51.518;-3.188;2024-03-08T01:48:51;100811.65;;;0.25;100.00
60817;BME280;51921;51.518;-3.188;2024-03-08T01:51:16;100809.26;;;0.06;100.00
60817;BME280;51921;51.518;-3.188;2024-03-08T01:53:42;100806.67;;;0.30;100.00
60817;BME280;51921;51.518;-3.188;2024-03-08T01:56:08;100802.21;;;0.73;100.00
60817;BME280;51921;51.518;-3.188;2024-03-08T01:58:33;100802.20;;;-0.08;100.00
60817;BME280;51921;51.518;-3.188;2024-03-08T02:00:58;100795.13;;;0.14;100.00
60817;BME280;51921;51.518;-3.188;2024-03-08T02:03:23;100789.39;;;0.38;100.00
60817;BME280;51921;51.518;-3.188;2024-03-08T02:05:49;100796.96;;;0.05;100.00
60817;BME280;51921;51.518;-3.188;2024-03-08T02:08:15;100786.60;;;-0.08;100.00
60817;BME280;51921;51.518;-3.188;2024-03-08T02:10:41;100794.28;;;0.60;100.00
60817;BME280;51921;51.518;-3.188;2024-03-08T02:13:05;100780.79;;;-0.05;100.00
60817;BME280;51921;51.518;-3.188;2024-03-08T02:17:56;100779.10;;;-0.05;100.00
60817;BME280;51921;51.518;-3.188;2024-03-08T02:20:21;100770.93;;;-0.07;100.00
60817;BME280;51921;51.518;-3.188;2024-03-08T02:22:48;100768.90;;;0.01;100.00
60817;BME280;51921;51.518;-3.188;2024-03-08T02:25:13;100759.89;;;-0.10;100.00
60817;BME280;51921;51.518;-3.188;2024-03-08T02:27:38;100751.93;;;-0.08;100.00
60817;BME280;51921;51.518;-3.188;2024-03-08T02:30:04;100738.64;;;-0.01;100.00
60817;BME280;51921;51.518;-3.188;2024-03-08T02:32:28;100733.65;;;0.11;100.00
60817;BME280;51921;51.518;-3.188;2024-03-08T02:34:56;100725.04;;;-0.15;100.00
60817;BME280;51921;51.518;-3.188;2024-03-08T02:37:19;100724.46;;;0.15;100.00
60817;BME280;51921;51.518;-3.188;2024-03-08T02:39:45;100714.89;;;-0.04;100.00
60817;BME280;51921;51.518;-3.188;2024-03-08T02:42:10;100708.34;;;0.25;100.00
60817;BME280;51921;51.518;-3.188;2024-03-08T02:44:35;100701.12;;;0.01;100.00
60817;BME280;51921;51.518;-3.188;2024-03-08T02:47:01;100704.15;;;-0.09;100.00
60817;BME280;51921;51.518;-3.188;2024-03-08T02:49:27;100699.54;;;0.21;100.00
60817;BME280;51921;51.518;-3.188;2024-03-08T02:51:52;100690.33;;;-0.00;100.00
60817;BME280;51921;51.518;-3.188;2024-03-08T02:54:17;100686.98;;;-0.06;100.00
60817;BME280;51921;51.518;-3.188;2024-03-08T02:56:43;100685.64;;;-0.31;100.00
60817;BME280;51921;51.518;-3.188;2024-03-08T02:59:08;100679.68;;;-0.28;100.00
60817;BME280;51921;51.518;-3.188;2024-03-08T03:01:34;100674.68;;;-0.27;100.00
60817;BME280;51921;51.518;-3.188;2024-03-08T03:04:00;100672.62;;;0.13;100.00
60817;BME280;51921;51.518;-3.188;2024-03-08T03:06:25;100668.53;;;-0.38;100.00
60817;BME280;51921;51.518;-3.188;2024-03-08T03:08:51;100665.34;;;-0.54;100.00
60817;BME280;51921;51.518;-3.188;2024-03-08T03:11:16;100658.62;;;-0.13;100.00
60817;BME280;51921;51.518;-3.188;2024-03-08T03:13:41;100659.42;;;-0.00;100.00
60817;BME280;51921;51.518;-3.188;2024-03-08T03:16:07;100650.45;;;-0.25;100.00
60817;BME280;51921;51.518;-3.188;2024-03-08T03:18:32;100649.82;;;0.06;100.00
60817;BME280;51921;51.518;-3.188;2024-03-08T03:20:58;100638.91;;;0.30;100.00
60817;BME280;51921;51.518;-3.188;2024-03-08T03:23:23;100641.98;;;-0.09;100.00
60817;BME280;51921;51.518;-3.188;2024-03-08T03:25:49;100635.90;;;-0.36;100.00
60817;BME280;51921;51.518;-3.188;2024-03-08T03:28:15;100627.37;;;-0.17;100.00
60817;BME280;51921;51.518;-3.188;2024-03-08T03:30:40;100632.28;;;-0.05;100.00
60817;BME280;51921;51.518;-3.188;2024-03-08T03:33:05;100626.53;;;-0.26;100.00
60817;BME280;51921;51.518;-3.188;2024-03-08T03:35:31;100621.16;;;-0.11;100.00
60817;BME280;51921;51.518;-3.188;2024-03-08T03:37:56;100612.59;;;-0.20;100.00
60817;BME280;51921;51.518;-3.188;2024-03-08T03:40:21;100610.86;;;-0.19;100.00
60817;BME280;51921;51.518;-3.188;2024-03-08T03:42:46;100610.50;;;-0.09;100.00
60817;BME280;51921;51.518;-3.188;2024-03-08T03:45:12;100609.72;;;-0.48;100.00
60817;BME280;51921;51.518;-3.188;2024-03-08T03:47:37;100604.76;;;-0.24;100.00
60817;BME280;51921;51.518;-3.188;2024-03-08T03:50:02;100600.87;;;0.01;100.00
60817;BME280;51921;51.518;-3.188;2024-03-08T03:52:28;100604.37;;;-0.47;100.00
60817;BME280;51921;51.518;-3.188;2024-03-08T03:54:53;100601.31;;;-0.26;100.00
60817;BME280;51921;51.518;-3.188;2024-03-08T03:57:18;100593.92;;;-0.25;100.00
60817;BME280;51921;51.518;-3.188;2024-03-08T03:59:43;100589.91;;;-0.23;100.00
60817;BME280;51921;51.518;-3.188;2024-03-08T04:02:08;100585.68;;;-0.42;100.00
60817;BME280;51921;51.518;-3.188;2024-03-08T04:04:34;100585.38;;;-0.51;100.00
60817;BME280;51921;51.518;-3.188;2024-03-08T04:06:59;100589.23;;;-0.05;100.00
60817;BME280;51921;51.518;-3.188;2024-03-08T04:09:25;100587.96;;;0.04;100.00
60817;BME280;51921;51.518;-3.188;2024-03-08T04:11:50;100582.88;;;-0.14;100.00
60817;BME280;51921;51.518;-3.188;2024-03-08T04:14:16;100584.93;;;-0.17;100.00
60817;BME280;51921;51.518;-3.188;2024-03-08T04:16:41;100582.89;;;-0.32;100.00
60817;BME280;51921;51.518;-3.188;2024-03-08T04:19:07;100576.23;;;-0.14;100.00
60817;BME280;51921;51.518;-3.188;2024-03-08T04:21:32;100575.99;;;-0.10;100.00
60817;BME280;51921;51.518;-3.188;2024-03-08T04:23:58;100572.35;;;-0.26;100.00
60817;BME280;51921;51.518;-3.188;2024-03-08T04:26:23;100573.13;;;-0.20;100.00
60817;BME280;51921;51.518;-3.188;2024-03-08T04:28:48;100571.41;;;-0.36;100.00
60817;BME280;51921;51.518;-3.188;2024-03-08T04:31:14;100564.19;;;-0.33;100.00
60817;BME280;51921;51.518;-3.188;2024-03-08T04:33:40;100558.06;;;0.13;100.00
60817;BME280;51921;51.518;-3.188;2024-03-08T04:36:06;100553.99;;;-0.33;100.00
60817;BME280;51921;51.518;-3.188;2024-03-08T04:38:30;100549.15;;;0.04;100.00
60817;BME280;51921;51.518;-3.188;2024-03-08T04:40:56;100549.16;;;-0.26;100.00
60817;BME280;51921;51.518;-3.188;2024-03-08T04:43:21;100540.72;;;-0.07;100.00
60817;BME280;51921;51.518;-3.188;2024-03-08T04:45:47;100540.00;;;-0.05;100.00
60817;BME280;51921;51.518;-3.188;2024-03-08T04:48:12;100541.22;;;0.13;100.00
60817;BME280;51921;51.518;-3.188;2024-03-08T04:50:37;100545.29;;;0.03;100.00
60817;BME280;51921;51.518;-3.188;2024-03-08T04:53:03;100539.86;;;0.43;100.00
60817;BME280;51921;51.518;-3.188;2024-03-08T04:55:28;100542.02;;;-0.22;100.00
60817;BME280;51921;51.518;-3.188;2024-03-08T04:57:54;100534.40;;;0.43;100.00
60817;BME280;51921;51.518;-3.188;2024-03-08T05:00:19;100537.48;;;0.02;100.00
60817;BME280;51921;51.518;-3.188;2024-03-08T05:02:45;100533.32;;;-0.11;100.00
60817;BME280;51921;51.518;-3.188;2024-03-08T05:05:10;100529.09;;;-0.19;100.00
60817;BME280;51921;51.518;-3.188;2024-03-08T05:07:35;100526.03;;;0.07;100.00
60817;BME280;51921;51.518;-3.188;2024-03-08T05:10:01;100519.05;;;-0.18;100.00
60817;BME280;51921;51.518;-3.188;2024-03-08T05:12:26;100526.46;;;-0.02;100.00
60817;BME280;51921;51.518;-3.188;2024-03-08T05:14:51;100519.09;;;-0.12;100.00
60817;BME280;51921;51.518;-3.188;2024-03-08T05:17:17;100522.62;;;-0.23;100.00
60817;BME280;51921;51.518;-3.188;2024-03-08T05:19:42;100519.43;;;0.15;100.00
60817;BME280;51921;51.518;-3.188;2024-03-08T05:22:08;100512.10;;;0.06;100.00
60817;BME280;51921;51.518;-3.188;2024-03-08T05:24:33;100509.20;;;0.31;100.00
60817;BME280;51921;51.518;-3.188;2024-03-08T05:26:59;100506.85;;;0.28;100.00
60817;BME280;51921;51.518;-3.188;2024-03-08T05:29:24;100501.98;;;0.10;100.00
60817;BME280;51921;51.518;-3.188;2024-03-08T05:31:50;100491.61;;;0.54;100.00
60817;BME280;51921;51.518;-3.188;2024-03-08T05:34:15;100489.92;;;-0.26;100.00
60817;BME280;51921;51.518;-3.188;2024-03-08T05:36:40;100486.24;;;0.08;100.00
60817;BME280;51921;51.518;-3.188;2024-03-08T05:39:06;100485.71;;;0.33;100.00
60817;BME280;51921;51.518;-3.188;2024-03-08T05:41:32;100487.94;;;0.26;100.00
60817;BME280;51921;51.518;-3.188;2024-03-08T05:43:57;100501.76;;;0.37;100.00
60817;BME280;51921;51.518;-3.188;2024-03-08T05:46:22;100489.27;;;0.20;100.00
60817;BME280;51921;51.518;-3.188;2024-03-08T05:48:48;100485.41;;;0.23;100.00
60817;BME280;51921;51.518;-3.188;2024-03-08T05:51:13;100482.26;;;0.22;100.00
60817;BME280;51921;51.518;-3.188;2024-03-08T05:53:38;100475.01;;;0.47;100.00
60817;BME280;51921;51.518;-3.188;2024-03-08T05:56:04;100473.76;;;0.45;100.00
60817;BME280;51921;51.518;-3.188;2024-03-08T05:58:29;100476.99;;;0.41;100.00
60817;BME280;51921;51.518;-3.188;2024-03-08T06:00:54;100474.08;;;0.07;100.00
60817;BME280;51921;51.518;-3.188;2024-03-08T06:03:20;100472.14;;;0.26;100.00
60817;BME280;51921;51.518;-3.188;2024-03-08T06:05:44;100469.98;;;0.63;100.00
60817;BME280;51921;51.518;-3.188;2024-03-08T06:08:09;100470.64;;;0.51;100.00
60817;BME280;51921;51.518;-3.188;2024-03-08T06:10:35;100471.76;;;0.43;100.00
60817;BME280;51921;51.518;-3.188;2024-03-08T06:13:01;100473.70;;;0.61;100.00
60817;BME280;51921;51.518;-3.188;2024-03-08T06:15:26;100474.06;;;0.30;100.00
60817;BME280;51921;51.518;-3.188;2024-03-08T06:17:51;100467.46;;;0.46;100.00
60817;BME280;51921;51.518;-3.188;2024-03-08T06:20:17;100473.75;;;0.52;100.00
60817;BME280;51921;51.518;-3.188;2024-03-08T06:22:42;100470.11;;;-0.03;100.00
60817;BME280;51921;51.518;-3.188;2024-03-08T06:25:08;100470.38;;;0.31;100.00
60817;BME280;51921;51.518;-3.188;2024-03-08T06:27:33;100474.66;;;0.21;100.00
60817;BME280;51921;51.518;-3.188;2024-03-08T06:29:58;100466.08;;;0.51;100.00
60817;BME280;51921;51.518;-3.188;2024-03-08T06:32:24;100473.45;;;0.64;100.00
60817;BME280;51921;51.518;-3.188;2024-03-08T06:34:49;100474.62;;;0.11;100.00
60817;BME280;51921;51.518;-3.188;2024-03-08T06:37:15;100476.51;;;0.08;100.00
60817;BME280;51921;51.518;-3.188;2024-03-08T06:39:40;100470.21;;;0.04;100.00
60817;BME280;51921;51.518;-3.188;2024-03-08T06:42:06;100469.37;;;0.24;100.00
60817;BME280;51921;51.518;-3.188;2024-03-08T06:44:31;100464.97;;;0.28;100.00
60817;BME280;51921;51.518;-3.188;2024-03-08T06:46:56;100462.07;;;0.10;100.00
60817;BME280;51921;51.518;-3.188;2024-03-08T06:49:21;100468.39;;;0.09;100.00
60817;BME280;51921;51.518;-3.188;2024-03-08T06:51:46;100461.87;;;-0.04;100.00
60817;BME280;51921;51.518;-3.188;2024-03-08T06:54:12;100461.90;;;-0.07;100.00
60817;BME280;51921;51.518;-3.188;2024-03-08T06:56:37;100453.62;;;0.48;100.00
60817;BME280;51921;51.518;-3.188;2024-03-08T06:59:03;100443.55;;;0.38;100.00
60817;BME280;51921;51.518;-3.188;2024-03-08T07:01:29;100436.18;;;0.80;100.00
60817;BME280;51921;51.518;-3.188;2024-03-08T07:03:54;100441.24;;;0.19;100.00
60817;BME280;51921;51.518;-3.188;2024-03-08T07:06:19;100437.85;;;0.34;100.00
60817;BME280;51921;51.518;-3.188;2024-03-08T07:08:45;100442.55;;;0.24;100.00
60817;BME280;51921;51.518;-3.188;2024-03-08T07:11:10;100437.86;;;-0.02;100.00
60817;BME280;51921;51.518;-3.188;2024-03-08T07:13:36;100441.35;;;-0.02;100.00
60817;BME280;51921;51.518;-3.188;2024-03-08T07:16:01;100440.40;;;-0.04;100.00
60817;BME280;51921;51.518;-3.188;2024-03-08T07:18:26;100442.27;;;-0.13;100.00
60817;BME280;51921;51.518;-3.188;2024-03-08T07:20:52;100447.01;;;0.25;100.00
60817;BME280;51921;51.518;-3.188;2024-03-08T07:23:18;100445.82;;;-0.03;100.00
60817;BME280;51921;51.518;-3.188;2024-03-08T07:25:43;100443.19;;;0.56;100.00
60817;BME280;51921;51.518;-3.188;2024-03-08T07:28:08;100445.35;;;0.17;100.00
60817;BME280;51921;51.518;-3.188;2024-03-08T07:30:34;100438.53;;;-0.14;100.00
60817;BME280;51921;51.518;-3.188;2024-03-08T07:33:00;100436.51;;;0.16;100.00
60817;BME280;51921;51.518;-3.188;2024-03-08T07:35:26;100442.60;;;0.19;100.00
60817;BME280;51921;51.518;-3.188;2024-03-08T07:37:51;100435.30;;;0.10;100.00
60817;BME280;51921;51.518;-3.188;2024-03-08T07:40:16;100430.13;;;0.41;100.00
60817;BME280;51921;51.518;-3.188;2024-03-08T07:42:41;100438.61;;;0.27;100.00
60817;BME280;51921;51.518;-3.188;2024-03-08T07:45:08;100434.41;;;0.13;100.00
60817;BME280;51921;51.518;-3.188;2024-03-08T07:47:32;100429.69;;;-0.23;100.00
60817;BME280;51921;51.518;-3.188;2024-03-08T07:49:58;100423.12;;;-0.10;100.00
60817;BME280;51921;51.518;-3.188;2024-03-08T07:52:23;100432.48;;;0.25;100.00
60817;BME280;51921;51.518;-3.188;2024-03-08T07:54:49;100417.49;;;0.27;100.00
60817;BME280;51921;51.518;-3.188;2024-03-08T07:57:15;100407.34;;;0.56;100.00
60817;BME280;51921;51.518;-3.188;2024-03-08T07:59:39;100419.21;;;0.20;100.00
60817;BME280;51921;51.518;-3.188;2024-03-08T08:02:05;100414.26;;;0.28;100.00
60817;BME280;51921;51.518;-3.188;2024-03-08T08:04:30;100409.29;;;0.16;100.00
60817;BME280;51921;51.518;-3.188;2024-03-08T08:06:55;100404.31;;;0.28;100.00
60817;BME280;51921;51.518;-3.188;2024-03-08T08:09:21;100403.65;;;0.06;100.00
60817;BME280;51921;51.518;-3.188;2024-03-08T08:11:46;100397.60;;;0.16;100.00
60817;BME280;51921;51.518;-3.188;2024-03-08T08:14:13;100387.38;;;-0.07;100.00
60817;BME280;51921;51.518;-3.188;2024-03-08T08:16:38;100381.84;;;0.17;100.00
60817;BME280;51921;51.518;-3.188;2024-03-08T08:19:03;100388.80;;;0.01;100.00
60817;BME280;51921;51.518;-3.188;2024-03-08T08:21:28;100391.88;;;0.10;100.00
60817;BME280;51921;51.518;-3.188;2024-03-08T08:23:53;100380.87;;;0.16;100.00
60817;BME280;51921;51.518;-3.188;2024-03-08T08:26:19;100377.20;;;0.15;100.00
60817;BME280;51921;51.518;-3.188;2024-03-08T08:28:44;100371.50;;;0.08;100.00
60817;BME280;51921;51.518;-3.188;2024-03-08T08:31:10;100373.89;;;0.19;100.00
60817;BME280;51921;51.518;-3.188;2024-03-08T08:33:35;100347.13;;;0.07;100.00
60817;BME280;51921;51.518;-3.188;2024-03-08T08:36:01;100354.54;;;0.15;100.00
60817;BME280;51921;51.518;-3.188;2024-03-08T08:38:26;100353.18;;;0.22;100.00
60817;BME280;51921;51.518;-3.188;2024-03-08T08:40:52;100357.12;;;0.39;100.00
60817;BME280;51921;51.518;-3.188;2024-03-08T08:43:17;100348.84;;;0.76;100.00
60817;BME280;51921;51.518;-3.188;2024-03-08T08:45:42;100349.47;;;0.87;100.00
60817;BME280;51921;51.518;-3.188;2024-03-08T08:48:08;100347.40;;;0.42;100.00
60817;BME280;51921;51.518;-3.188;2024-03-08T08:50:33;100347.18;;;0.67;100.00
60817;BME280;51921;51.518;-3.188;2024-03-08T08:52:59;100340.30;;;0.82;100.00
60817;BME280;51921;51.518;-3.188;2024-03-08T08:55:25;100344.84;;;0.28;100.00
60817;BME280;51921;51.518;-3.188;2024-03-08T08:57:50;100349.28;;;0.57;100.00
60817;BME280;51921;51.518;-3.188;2024-03-08T09:00:15;100333.35;;;0.55;100.00
60817;BME280;51921;51.518;-3.188;2024-03-08T09:02:41;100336.84;;;0.58;100.00
60817;BME280;51921;51.518;-3.188;2024-03-08T09:05:07;100328.74;;;0.48;100.00
60817;BME280;51921;51.518;-3.188;2024-03-08T09:07:31;100322.78;;;0.86;100.00
60817;BME280;51921;51.518;-3.188;2024-03-08T09:10:02;100315.10;;;0.65;100.00
60817;BME280;51921;51.518;-3.188;2024-03-08T09:12:22;100316.37;;;0.83;100.00
60817;BME280;51921;51.518;-3.188;2024-03-08T09:14:48;100301.31;;;0.77;100.00
60817;BME280;51921;51.518;-3.188;2024-03-08T09:17:13;100302.99;;;1.04;100.00
60817;BME280;51921;51.518;-3.188;2024-03-08T09:19:39;100302.90;;;1.11;100.00
60817;BME280;51921;51.518;-3.188;2024-03-08T09:22:04;100284.34;;;1.36;100.00
60817;BME280;51921;51.518;-3.188;2024-03-08T09:24:30;100294.63;;;0.61;100.00
60817;BME280;51921;51.518;-3.188;2024-03-08T09:26:56;100288.77;;;1.08;100.00
60817;BME280;51921;51.518;-3.188;2024-03-08T09:29:20;100290.56;;;0.97;100.00
60817;BME280;51921;51.518;-3.188;2024-03-08T09:31:46;100273.19;;;1.13;100.00
60817;BME280;51921;51.518;-3.188;2024-03-08T09:34:11;100270.17;;;1.21;100.00
60817;BME280;51921;51.518;-3.188;2024-03-08T09:36:37;100268.19;;;1.19;100.00
60817;BME280;51921;51.518;-3.188;2024-03-08T09:39:02;100262.92;;;1.44;100.00
60817;BME280;51921;51.518;-3.188;2024-03-08T09:41:27;100265.68;;;1.56;100.00
60817;BME280;51921;51.518;-3.188;2024-03-08T09:43:53;100260.25;;;1.10;100.00
60817;BME280;51921;51.518;-3.188;2024-03-08T09:46:19;100258.61;;;1.42;100.00
60817;BME280;51921;51.518;-3.188;2024-03-08T09:48:43;100266.43;;;1.36;100.00
60817;BME280;51921;51.518;-3.188;2024-03-08T09:51:09;100261.10;;;1.23;100.00
60817;BME280;51921;51.518;-3.188;2024-03-08T09:53:35;100252.91;;;1.28;100.00
60817;BME280;51921;51.518;-3.188;2024-03-08T09:56:00;100252.93;;;1.49;100.00
60817;BME280;51921;51.518;-3.188;2024-03-08T09:58:25;100234.65;;;1.40;100.00
60817;BME280;51921;51.518;-3.188;2024-03-08T10:00:51;100238.98;;;1.80;100.00
60817;BME280;51921;51.518;-3.188;2024-03-08T10:03:16;100241.61;;;1.22;100.00
60817;BME280;51921;51.518;-3.188;2024-03-08T10:05:42;100234.89;;;1.31;100.00
60817;BME280;51921;51.518;-3.188;2024-03-08T10:08:07;100234.37;;;1.65;100.00
60817;BME280;51921;51.518;-3.188;2024-03-08T10:10:33;100219.98;;;1.45;100.00
60817;BME280;51921;51.518;-3.188;2024-03-08T10:12:58;100207.62;;;1.58;100.00
60817;BME280;51921;51.518;-3.188;2024-03-08T10:15:23;100203.54;;;1.85;100.00
60817;BME280;51921;51.518;-3.188;2024-03-08T10:17:48;100201.95;;;1.47;100.00
60817;BME280;51921;51.518;-3.188;2024-03-08T10:20:15;100198.89;;;1.57;100.00
60817;BME280;51921;51.518;-3.188;2024-03-08T10:22:39;100194.96;;;1.90;100.00
60817;BME280;51921;51.518;-3.188;2024-03-08T10:25:05;100194.28;;;2.20;100.00
60817;BME280;51921;51.518;-3.188;2024-03-08T10:27:30;100192.31;;;1.97;100.00
60817;BME280;51921;51.518;-3.188;2024-03-08T10:29:56;100194.41;;;1.97;100.00
60817;BME280;51921;51.518;-3.188;2024-03-08T10:32:21;100188.29;;;1.80;100.00
60817;BME280;51921;51.518;-3.188;2024-03-08T10:34:47;100186.85;;;2.00;100.00
60817;BME280;51921;51.518;-3.188;2024-03-08T10:37:15;100188.44;;;2.12;100.00
60817;BME280;51921;51.518;-3.188;2024-03-08T10:39:37;100187.84;;;1.93;100.00
60817;BME280;51921;51.518;-3.188;2024-03-08T10:42:05;100177.72;;;2.14;100.00
60817;BME280;51921;51.518;-3.188;2024-03-08T10:44:42;100180.38;;;1.90;100.00
60817;BME280;51921;51.518;-3.188;2024-03-08T10:47:00;100183.14;;;2.53;100.00
60817;BME280;51921;51.518;-3.188;2024-03-08T10:49:24;100174.30;;;2.47;100.00
60817;BME280;51921;51.518;-3.188;2024-03-08T10:51:45;100166.67;;;2.23;100.00
60817;BME280;51921;51.518;-3.188;2024-03-08T10:54:10;100170.88;;;2.63;100.00
60817;BME280;51921;51.518;-3.188;2024-03-08T10:56:35;100176.68;;;2.54;100.00
60817;BME280;51921;51.518;-3.188;2024-03-08T10:59:01;100165.30;;;2.22;100.00
60817;BME280;51921;51.518;-3.188;2024-03-08T11:01:26;100171.77;;;2.57;100.00
60817;BME280;51921;51.518;-3.188;2024-03-08T11:03:52;100157.31;;;2.54;100.00
60817;BME280;51921;51.518;-3.188;2024-03-08T11:06:18;100154.92;;;2.60;100.00
60817;BME280;51921;51.518;-3.188;2024-03-08T11:08:42;100153.56;;;2.64;100.00
60817;BME280;51921;51.518;-3.188;2024-03-08T11:11:23;100147.64;;;2.70;100.00
60817;BME280;51921;51.518;-3.188;2024-03-08T11:13:33;100138.02;;;2.75;100.00
60817;BME280;51921;51.518;-3.188;2024-03-08T11:15:57;100138.99;;;2.87;100.00
60817;BME280;51921;51.518;-3.188;2024-03-08T11:18:23;100131.68;;;3.10;100.00
60817;BME280;51921;51.518;-3.188;2024-03-08T11:20:48;100137.10;;;3.13;100.00
60817;BME280;51921;51.518;-3.188;2024-03-08T11:23:14;100130.67;;;2.79;100.00
60817;BME280;51921;51.518;-3.188;2024-03-08T11:25:40;100123.95;;;2.80;100.00
60817;BME280;51921;51.518;-3.188;2024-03-08T11:28:09;100123.54;;;2.90;100.00
60817;BME280;51921;51.518;-3.188;2024-03-08T11:30:31;100110.27;;;2.88;100.00
60817;BME280;51921;51.518;-3.188;2024-03-08T11:33:01;100119.93;;;2.79;100.00
60817;BME280;51921;51.518;-3.188;2024-03-08T11:35:22;100103.30;;;3.15;100.00
60817;BME280;51921;51.518;-3.188;2024-03-08T11:37:48;100095.02;;;3.07;100.00
60817;BME280;51921;51.518;-3.188;2024-03-08T11:40:14;100115.66;;;3.05;100.00
60817;BME280;51921;51.518;-3.188;2024-03-08T11:42:40;100088.62;;;3.21;100.00
60817;BME280;51921;51.518;-3.188;2024-03-08T11:45:09;100107.38;;;2.86;100.00
60817;BME280;51921;51.518;-3.188;2024-03-08T11:47:31;100085.00;;;3.16;100.00
60817;BME280;51921;51.518;-3.188;2024-03-08T11:49:56;100120.97;;;3.32;100.00
60817;BME280;51921;51.518;-3.188;2024-03-08T11:52:22;100095.26;;;3.17;100.00
60817;BME280;51921;51.518;-3.188;2024-03-08T11:54:51;100094.50;;;3.13;100.00
60817;BME280;51921;51.518;-3.188;2024-03-08T11:57:13;100084.31;;;2.57;100.00
60817;BME280;51921;51.518;-3.188;2024-03-08T11:59:38;100086.56;;;3.02;100.00
60817;BME280;51921;51.518;-3.188;2024-03-08T12:02:05;100078.78;;;3.41;100.00
60817;BME280;51921;51.518;-3.188;2024-03-08T12:04:29;100072.42;;;3.33;100.00
60817;BME280;51921;51.518;-3.188;2024-03-08T12:06:54;100073.64;;;3.41;100.00
60817;BME280;51921;51.518;-3.188;2024-03-08T12:09:20;100073.80;;;3.90;100.00
60817;BME280;51921;51.518;-3.188;2024-03-08T12:11:47;100067.34;;;3.73;100.00
60817;BME280;51921;51.518;-3.188;2024-03-08T12:14:11;100080.61;;;3.49;100.00
60817;BME280;51921;51.518;-3.188;2024-03-08T12:16:37;100057.99;;;3.04;100.00
60817;BME280;51921;51.518;-3.188;2024-03-08T12:19:03;100065.17;;;3.39;100.00
60817;BME280;51921;51.518;-3.188;2024-03-08T12:21:31;100058.86;;;3.58;100.00
60817;BME280;51921;51.518;-3.188;2024-03-08T12:24:02;100056.93;;;3.61;100.00
60817;BME280;51921;51.518;-3.188;2024-03-08T12:26:24;100061.14;;;3.42;100.00
60817;BME280;51921;51.518;-3.188;2024-03-08T12:28:45;100057.76;;;4.10;100.00
60817;BME280;51921;51.518;-3.188;2024-03-08T12:31:13;100056.94;;;3.71;100.00